sensor_id;sensor_type;location;lat;lon;timestamp;P1;durP1;ratioP1;P2;durP2;ratioP2
35243;SDS011;37916;52.160;21.066;2022-11-24T00:09:52;37.12;;;16.20;;
35243;SDS011;37916;52.160;21.066;2022-11-24T00:19:53;24.84;;;10.04;;
35243;SDS011;37916;52.160;21.066;2022-11-24T00:29:54;32.65;;;15.52;;
35243;SDS011;37916;52.160;21.066;2022-11-24T00:40:07;37.00;;;14.68;;
35243;SDS011;37916;52.160;21.066;2022-11-24T00:50:59;38.22;;;14.82;;
35243;SDS011;37916;52.160;21.066;2022-11-24T01:12:23;34.90;;;12.88;;
35243;SDS011;37916;52.160;21.066;2022-11-24T01:23:06;36.03;;;15.73;;
35243;SDS011;37916;52.160;21.066;2022-11-24T01:33:08;31.05;;;13.80;;
35243;SDS011;37916;52.160;21.066;2022-11-24T01:43:15;32.50;;;13.80;;
35243;SDS011;37916;52.160;21.066;2022-11-24T01:53:53;39.83;;;16.60;;
35243;SDS011;37916;52.160;21.066;2022-11-24T02:04:24;41.70;;;17.23;;
35243;SDS011;37916;52.160;21.066;2022-11-24T02:14:39;40.08;;;15.55;;
35243;SDS011;37916;52.160;21.066;2022-11-24T02:36:05;29.85;;;12.88;;
35243;SDS011;37916;52.160;21.066;2022-11-24T02:46:08;24.48;;;10.25;;
35243;SDS011;37916;52.160;21.066;2022-11-24T02:56:12;21.77;;;10.40;;
35243;SDS011;37916;52.160;21.066;2022-11-24T03:17:33;19.98;;;9.70;;
35243;SDS011;37916;52.160;21.066;2022-11-24T03:27:55;25.20;;;12.27;;
35243;SDS011;37916;52.160;21.066;2022-11-24T03:37:59;18.23;;;8.15;;
35243;SDS011;37916;52.160;21.066;2022-11-24T03:48:08;21.38;;;10.20;;
35243;SDS011;37916;52.160;21.066;2022-11-24T03:58:28;23.33;;;10.40;;
35243;SDS011;37916;52.160;21.066;2022-11-24T04:08:33;22.08;;;10.43;;
35243;SDS011;37916;52.160;21.066;2022-11-24T04:18:50;21.77;;;10.20;;
35243;SDS011;37916;52.160;21.066;2022-11-24T04:28:59;22.50;;;10.18;;
35243;SDS011;37916;52.160;21.066;2022-11-24T04:39:04;22.58;;;10.15;;
35243;SDS011;37916;52.160;21.066;2022-11-24T04:49:05;27.27;;;11.27;;
35243;SDS011;37916;52.160;21.066;2022-11-24T04:59:19;20.17;;;10.25;;
35243;SDS011;37916;52.160;21.066;2022-11-24T05:09:39;22.50;;;9.13;;
35243;SDS011;37916;52.160;21.066;2022-11-24T05:20:01;21.35;;;9.43;;
35243;SDS011;37916;52.160;21.066;2022-11-24T05:30:03;23.15;;;10.05;;
35243;SDS011;37916;52.160;21.066;2022-11-24T05:40:05;25.63;;;10.60;;
35243;SDS011;37916;52.160;21.066;2022-11-24T05:50:11;22.73;;;10.55;;
35243;SDS011;37916;52.160;21.066;2022-11-24T06:00:51;24.77;;;10.38;;
35243;SDS011;37916;52.160;21.066;2022-11-24T06:11:01;18.27;;;8.45;;
35243;SDS011;37916;52.160;21.066;2022-11-24T06:21:23;23.55;;;10.07;;
35243;SDS011;37916;52.160;21.066;2022-11-24T06:31:24;21.90;;;8.90;;
35243;SDS011;37916;52.160;21.066;2022-11-24T06:41:30;22.63;;;10.00;;
35243;SDS011;37916;52.160;21.066;2022-11-24T06:51:34;20.13;;;9.57;;
35243;SDS011;37916;52.160;21.066;2022-11-24T07:01:43;21.92;;;10.38;;
35243;SDS011;37916;52.160;21.066;2022-11-24T07:11:45;24.75;;;10.43;;
35243;SDS011;37916;52.160;21.066;2022-11-24T07:21:49;20.93;;;8.73;;
35243;SDS011;37916;52.160;21.066;2022-11-24T07:31:50;23.17;;;10.38;;
35243;SDS011;37916;52.160;21.066;2022-11-24T07:41:51;21.67;;;11.07;;
35243;SDS011;37916;52.160;21.066;2022-11-24T07:51:51;23.64;;;12.30;;
35243;SDS011;37916;52.160;21.066;2022-11-24T08:01:52;24.20;;;12.35;;
35243;SDS011;37916;52.160;21.066;2022-11-24T08:11:53;25.83;;;12.43;;
35243;SDS011;37916;52.160;21.066;2022-11-24T08:21:53;27.48;;;13.20;;
35243;SDS011;37916;52.160;21.066;2022-11-24T08:31:54;30.17;;;14.43;;
35243;SDS011;37916;52.160;21.066;2022-11-24T08:41:56;27.80;;;12.80;;
35243;SDS011;37916;52.160;21.066;2022-11-24T08:51:56;24.35;;;11.68;;
35243;SDS011;37916;52.160;21.066;2022-11-24T09:01:57;20.65;;;10.32;;
35243;SDS011;37916;52.160;21.066;2022-11-24T09:11:58;23.20;;;12.05;;
35243;SDS011;37916;52.160;21.066;2022-11-24T09:21:58;24.60;;;12.13;;
35243;SDS011;37916;52.160;21.066;2022-11-24T09:31:59;20.20;;;9.56;;
35243;SDS011;37916;52.160;21.066;2022-11-24T09:42:02;23.08;;;10.27;;
35243;SDS011;37916;52.160;21.066;2022-11-24T09:53:09;21.95;;;10.95;;
35243;SDS011;37916;52.160;21.066;2022-11-24T10:03:02;17.30;;;9.10;;
35243;SDS011;37916;52.160;21.066;2022-11-24T10:13:15;23.45;;;10.82;;
35243;SDS011;37916;52.160;21.066;2022-11-24T10:34:04;23.27;;;11.48;;
35243;SDS011;37916;52.160;21.066;2022-11-24T10:44:26;26.40;;;13.60;;
35243;SDS011;37916;52.160;21.066;2022-11-24T10:54:27;19.97;;;10.83;;
35243;SDS011;37916;52.160;21.066;2022-11-24T11:04:32;24.38;;;11.05;;
35243;SDS011;37916;52.160;21.066;2022-11-24T11:14:34;21.48;;;10.88;;
35243;SDS011;37916;52.160;21.066;2022-11-24T11:24:35;26.50;;;12.60;;
35243;SDS011;37916;52.160;21.066;2022-11-24T11:34:38;23.63;;;11.48;;
35243;SDS011;37916;52.160;21.066;2022-11-24T11:54:52;21.33;;;11.77;;
35243;SDS011;37916;52.160;21.066;2022-11-24T12:04:59;19.67;;;9.55;;
35243;SDS011;37916;52.160;21.066;2022-11-24T12:15:11;22.98;;;10.80;;
35243;SDS011;37916;52.160;21.066;2022-11-24T12:25:21;19.45;;;8.63;;
35243;SDS011;37916;52.160;21.066;2022-11-24T12:45:50;20.60;;;9.02;;
35243;SDS011;37916;52.160;21.066;2022-11-24T12:56:13;10.38;;;4.10;;
35243;SDS011;37916;52.160;21.066;2022-11-24T13:06:24;22.37;;;9.83;;
35243;SDS011;37916;52.160;21.066;2022-11-24T13:27:38;21.60;;;10.37;;
35243;SDS011;37916;52.160;21.066;2022-11-24T13:47:41;22.55;;;10.52;;
35243;SDS011;37916;52.160;21.066;2022-11-24T14:07:52;23.90;;;10.45;;
35243;SDS011;37916;52.160;21.066;2022-11-24T14:17:53;23.50;;;11.20;;
35243;SDS011;37916;52.160;21.066;2022-11-24T14:27:54;26.52;;;12.15;;
35243;SDS011;37916;52.160;21.066;2022-11-24T14:37:56;21.92;;;11.13;;
35243;SDS011;37916;52.160;21.066;2022-11-24T14:47:58;22.95;;;11.43;;
35243;SDS011;37916;52.160;21.066;2022-11-24T14:57:58;22.98;;;10.90;;
35243;SDS011;37916;52.160;21.066;2022-11-24T15:29:17;42.70;;;20.80;;
35243;SDS011;37916;52.160;21.066;2022-11-24T15:39:17;37.33;;;18.35;;
35243;SDS011;37916;52.160;21.066;2022-11-24T15:49:18;42.95;;;20.13;;
35243;SDS011;37916;52.160;21.066;2022-11-24T15:59:19;42.90;;;18.17;;
35243;SDS011;37916;52.160;21.066;2022-11-24T16:09:20;40.60;;;19.83;;
35243;SDS011;37916;52.160;21.066;2022-11-24T16:19:21;43.70;;;18.85;;
35243;SDS011;37916;52.160;21.066;2022-11-24T16:29:21;48.78;;;24.40;;
35243;SDS011;37916;52.160;21.066;2022-11-24T16:39:25;47.73;;;20.23;;
35243;SDS011;37916;52.160;21.066;2022-11-24T16:49:25;50.40;;;22.38;;
35243;SDS011;37916;52.160;21.066;2022-11-24T16:59:26;44.45;;;21.02;;
35243;SDS011;37916;52.160;21.066;2022-11-24T17:09:27;49.00;;;22.20;;
35243;SDS011;37916;52.160;21.066;2022-11-24T17:41:14;39.90;;;20.55;;
35243;SDS011;37916;52.160;21.066;2022-11-24T17:51:40;40.40;;;18.88;;
35243;SDS011;37916;52.160;21.066;2022-11-24T18:01:42;33.70;;;15.95;;
35243;SDS011;37916;52.160;21.066;2022-11-24T18:22:45;45.38;;;19.25;;
35243;SDS011;37916;52.160;21.066;2022-11-24T18:32:49;37.08;;;16.45;;
35243;SDS011;37916;52.160;21.066;2022-11-24T18:43:01;42.35;;;17.27;;
35243;SDS011;37916;52.160;21.066;2022-11-24T18:53:23;47.87;;;17.83;;
35243;SDS011;37916;52.160;21.066;2022-11-24T19:03:27;55.40;;;21.15;;
35243;SDS011;37916;52.160;21.066;2022-11-24T19:13:35;48.20;;;18.42;;
35243;SDS011;37916;52.160;21.066;2022-11-24T19:23:35;50.66;;;19.04;;
35243;SDS011;37916;52.160;21.066;2022-11-24T19:44:52;55.55;;;21.15;;
35243;SDS011;37916;52.160;21.066;2022-11-24T19:54:53;46.83;;;20.47;;
35243;SDS011;37916;52.160;21.066;2022-11-24T20:05:08;50.22;;;20.42;;
35243;SDS011;37916;52.160;21.066;2022-11-24T20:26:04;37.22;;;15.90;;
35243;SDS011;37916;52.160;21.066;2022-11-24T21:08:34;40.22;;;14.85;;
35243;SDS011;37916;52.160;21.066;2022-11-24T21:18:38;42.40;;;15.30;;
35243;SDS011;37916;52.160;21.066;2022-11-24T21:39:54;39.55;;;15.07;;
35243;SDS011;37916;52.160;21.066;2022-11-24T21:50:11;38.80;;;14.98;;
35243;SDS011;37916;52.160;21.066;2022-11-24T23:29:57;59.17;;;20.10;;
